sensor_id;sensor_type;location;lat;lon;timestamp;pressure;altitude;pressure_sealevel;temperature;humidity
14253;BME280;7210;51.502;10.722;2023-03-03T00:00:14;100308.19;;;-2.82;100.00
14253;BME280;7210;51.502;10.722;2023-03-03T00:02:42;100299.63;;;-2.82;100.00
14253;BME280;7210;51.502;10.722;2023-03-03T00:05:09;100305.19;;;-2.87;100.00
14253;BME280;7210;51.502;10.722;2023-03-03T00:07:42;100289.91;;;-2.90;100.00
14253;BME280;7210;51.502;10.722;2023-03-03T00:10:11;100286.72;;;-2.93;100.00
14253;BME280;7210;51.502;10.722;2023-03-03T00:12:47;100287.00;;;-2.96;100.00
14253;BME280;7210;51.502;10.722;2023-03-03T00:15:17;100290.75;;;-3.00;100.00
14253;BME280;7210;51.502;10.722;2023-03-03T00:17:45;100297.81;;;-3.02;100.00
14253;BME280;7210;51.502;10.722;2023-03-03T00:20:34;100295.25;;;-3.02;100.00
14253;BME280;7210;51.502;10.722;2023-03-03T00:23:19;100288.53;;;-3.05;100.00
14253;BME280;7210;51.502;10.722;2023-03-03T00:25:50;100298.66;;;-3.02;100.00
14253;BME280;7210;51.502;10.722;2023-03-03T00:28:30;100293.81;;;-2.95;100.00
14253;BME280;7210;51.502;10.722;2023-03-03T00:31:01;100296.69;;;-2.89;100.00
14253;BME280;7210;51.502;10.722;2023-03-03T00:33:32;100297.72;;;-2.80;100.00
14253;BME280;7210;51.502;10.722;2023-03-03T00:36:27;100299.31;;;-2.68;100.00
14253;BME280;7210;51.502;10.722;2023-03-03T00:39:16;100316.72;;;-2.50;100.00
14253;BME280;7210;51.502;10.722;2023-03-03T00:41:44;100316.53;;;-2.37;100.00
14253;BME280;7210;51.502;10.722;2023-03-03T00:44:43;100311.34;;;-2.37;100.00
14253;BME280;7210;51.502;10.722;2023-03-03T00:47:28;100316.53;;;-2.37;100.00
14253;BME280;7210;51.502;10.722;2023-03-03T00:50:24;100309.22;;;-2.32;100.00
14253;BME280;7210;51.502;10.722;2023-03-03T00:53:03;100306.13;;;-2.26;100.00
14253;BME280;7210;51.502;10.722;2023-03-03T00:55:33;100303.25;;;-2.23;100.00
14253;BME280;7210;51.502;10.722;2023-03-03T00:58:02;100303.44;;;-2.15;100.00
14253;BME280;7210;51.502;10.722;2023-03-03T01:00:35;100313.91;;;-1.96;100.00
14253;BME280;7210;51.502;10.722;2023-03-03T01:03:06;100314.31;;;-1.91;100.00
14253;BME280;7210;51.502;10.722;2023-03-03T01:05:35;100307.66;;;-1.84;100.00
14253;BME280;7210;51.502;10.722;2023-03-03T01:08:04;100311.66;;;-1.80;100.00
14253;BME280;7210;51.502;10.722;2023-03-03T01:10:38;100309.22;;;-1.72;100.00
14253;BME280;7210;51.502;10.722;2023-03-03T01:13:13;100311.69;;;-1.61;100.00
14253;BME280;7210;51.502;10.722;2023-03-03T01:15:40;100301.09;;;-1.58;100.00
14253;BME280;7210;51.502;10.722;2023-03-03T01:18:08;100300.81;;;-1.55;100.00
14253;BME280;7210;51.502;10.722;2023-03-03T01:20:36;100304.91;;;-1.53;100.00
14253;BME280;7210;51.502;10.722;2023-03-03T01:23:05;100303.84;;;-1.50;100.00
14253;BME280;7210;51.502;10.722;2023-03-03T01:25:34;100304.13;;;-1.44;100.00
14253;BME280;7210;51.502;10.722;2023-03-03T01:28:01;100288.56;;;-1.44;100.00
14253;BME280;7210;51.502;10.722;2023-03-03T01:30:29;100295.09;;;-1.40;100.00
14253;BME280;7210;51.502;10.722;2023-03-03T01:32:57;100279.03;;;-1.43;100.00
14253;BME280;7210;51.502;10.722;2023-03-03T01:35:24;100287.34;;;-1.30;100.00
14253;BME280;7210;51.502;10.722;2023-03-03T01:37:51;100279.56;;;-1.30;100.00
14253;BME280;7210;51.502;10.722;2023-03-03T01:40:22;100275.47;;;-1.33;100.00
14253;BME280;7210;51.502;10.722;2023-03-03T01:42:52;100281.19;;;-1.29;100.00
14253;BME280;7210;51.502;10.722;2023-03-03T01:45:27;100277.94;;;-1.22;100.00
14253;BME280;7210;51.502;10.722;2023-03-03T01:48:00;100271.81;;;-1.21;100.00
14253;BME280;7210;51.502;10.722;2023-03-03T01:50:38;100260.75;;;-1.23;100.00
14253;BME280;7210;51.502;10.722;2023-03-03T01:53:15;100248.44;;;-1.30;100.00
14253;BME280;7210;51.502;10.722;2023-03-03T01:55:45;100252.56;;;-1.28;100.00
14253;BME280;7210;51.502;10.722;2023-03-03T01:58:20;100258.72;;;-1.19;100.00
14253;BME280;7210;51.502;10.722;2023-03-03T02:00:52;100258.28;;;-1.24;100.00
14253;BME280;7210;51.502;10.722;2023-03-03T02:03:24;100274.97;;;-1.08;100.00
14253;BME280;7210;51.502;10.722;2023-03-03T02:05:59;100274.13;;;-1.08;100.00
14253;BME280;7210;51.502;10.722;2023-03-03T02:08:35;100261.03;;;-1.07;100.00
14253;BME280;7210;51.502;10.722;2023-03-03T02:11:05;100264.31;;;-1.05;100.00
14253;BME280;7210;51.502;10.722;2023-03-03T02:13:35;100262.81;;;-0.98;100.00
14253;BME280;7210;51.502;10.722;2023-03-03T02:16:03;100270.16;;;-0.93;100.00
14253;BME280;7210;51.502;10.722;2023-03-03T02:18:31;100269.22;;;-0.92;100.00
14253;BME280;7210;51.502;10.722;2023-03-03T02:21:04;100278.63;;;-0.91;100.00
14253;BME280;7210;51.502;10.722;2023-03-03T02:23:39;100274.94;;;-0.89;100.00
14253;BME280;7210;51.502;10.722;2023-03-03T02:26:13;100275.78;;;-0.88;100.00
14253;BME280;7210;51.502;10.722;2023-03-03T02:28:41;100280.69;;;-0.85;100.00
14253;BME280;7210;51.502;10.722;2023-03-03T02:31:13;100283.69;;;-0.80;100.00
14253;BME280;7210;51.502;10.722;2023-03-03T02:33:44;100280.66;;;-0.66;100.00
14253;BME280;7210;51.502;10.722;2023-03-03T02:36:16;100271.66;;;-0.62;100.00
14253;BME280;7210;51.502;10.722;2023-03-03T02:38:49;100266.16;;;-0.59;100.00
14253;BME280;7210;51.502;10.722;2023-03-03T02:41:29;100267.53;;;-0.55;100.00
14253;BME280;7210;51.502;10.722;2023-03-03T02:44:02;100265.59;;;-0.53;100.00
14253;BME280;7210;51.502;10.722;2023-03-03T02:46:35;100264.41;;;-0.59;100.00
14253;BME280;7210;51.502;10.722;2023-03-03T02:49:06;100266.69;;;-0.56;100.00
14253;BME280;7210;51.502;10.722;2023-03-03T02:51:35;100269.84;;;-0.52;100.00
14253;BME280;7210;51.502;10.722;2023-03-03T02:54:04;100265.06;;;-0.47;100.00
14253;BME280;7210;51.502;10.722;2023-03-03T02:56:34;100264.75;;;-0.44;100.00
14253;BME280;7210;51.502;10.722;2023-03-03T02:59:02;100243.63;;;-0.49;100.00
14253;BME280;7210;51.502;10.722;2023-03-03T03:01:33;100249.06;;;-0.52;100.00
14253;BME280;7210;51.502;10.722;2023-03-03T03:04:08;100238.84;;;-0.54;100.00
14253;BME280;7210;51.502;10.722;2023-03-03T03:06:38;100233.66;;;-0.54;100.00
14253;BME280;7210;51.502;10.722;2023-03-03T03:11:32;100236.63;;;-0.49;100.00
14253;BME280;7210;51.502;10.722;2023-03-03T03:14:01;100228.03;;;-0.49;100.00
14253;BME280;7210;51.502;10.722;2023-03-03T03:16:29;100229.81;;;-0.50;100.00
14253;BME280;7210;51.502;10.722;2023-03-03T03:21:47;100230.34;;;-0.46;100.00
14253;BME280;7210;51.502;10.722;2023-03-03T03:24:15;100243.72;;;-0.41;100.00
14253;BME280;7210;51.502;10.722;2023-03-03T03:26:47;100243.31;;;-0.37;100.00
14253;BME280;7210;51.502;10.722;2023-03-03T03:29:16;100242.91;;;-0.42;100.00
14253;BME280;7210;51.502;10.722;2023-03-03T03:31:43;100234.44;;;-0.44;100.00
14253;BME280;7210;51.502;10.722;2023-03-03T03:34:10;100241.50;;;-0.36;100.00
14253;BME280;7210;51.502;10.722;2023-03-03T03:36:38;100233.03;;;-0.38;100.00
14253;BME280;7210;51.502;10.722;2023-03-03T03:39:05;100243.84;;;-0.33;100.00
14253;BME280;7210;51.502;10.722;2023-03-03T03:41:35;100251.63;;;-0.33;100.00
14253;BME280;7210;51.502;10.722;2023-03-03T03:44:03;100246.31;;;-0.41;100.00
14253;BME280;7210;51.502;10.722;2023-03-03T03:46:32;100244.97;;;-0.45;100.00
14253;BME280;7210;51.502;10.722;2023-03-03T03:48:59;100231.72;;;-0.42;100.00
14253;BME280;7210;51.502;10.722;2023-03-03T03:51:27;100236.91;;;-0.42;100.00
14253;BME280;7210;51.502;10.722;2023-03-03T03:53:54;100232.50;;;-0.42;100.00
14253;BME280;7210;51.502;10.722;2023-03-03T03:56:21;100231.72;;;-0.42;100.00
14253;BME280;7210;51.502;10.722;2023-03-03T03:58:52;100224.84;;;-0.43;100.00
14253;BME280;7210;51.502;10.722;2023-03-03T04:01:26;100222.69;;;-0.48;100.00
14253;BME280;7210;51.502;10.722;2023-03-03T04:03:55;100220.50;;;-0.52;100.00
14253;BME280;7210;51.502;10.722;2023-03-03T04:06:24;100234.56;;;-0.45;100.00
14253;BME280;7210;51.502;10.722;2023-03-03T04:08:56;100235.53;;;-0.46;100.00
14253;BME280;7210;51.502;10.722;2023-03-03T04:11:24;100236.75;;;-0.50;100.00
14253;BME280;7210;51.502;10.722;2023-03-03T04:13:52;100245.38;;;-0.50;100.00
14253;BME280;7210;51.502;10.722;2023-03-03T04:16:20;100248.41;;;-0.54;100.00
14253;BME280;7210;51.502;10.722;2023-03-03T04:18:47;100258.78;;;-0.54;100.00
14253;BME280;7210;51.502;10.722;2023-03-03T04:21:18;100250.44;;;-0.48;100.00
14253;BME280;7210;51.502;10.722;2023-03-03T04:23:46;100255.06;;;-0.42;100.00
14253;BME280;7210;51.502;10.722;2023-03-03T04:26:13;100247.28;;;-0.42;100.00
14253;BME280;7210;51.502;10.722;2023-03-03T04:28:42;100249.06;;;-0.43;100.00
14253;BME280;7210;51.502;10.722;2023-03-03T04:31:10;100241.28;;;-0.52;100.00
14253;BME280;7210;51.502;10.722;2023-03-03T04:33:37;100247.97;;;-0.50;100.00
14253;BME280;7210;51.502;10.722;2023-03-03T04:36:05;100253.31;;;-0.51;100.00
14253;BME280;7210;51.502;10.722;2023-03-03T04:38:34;100252.22;;;-0.58;100.00
14253;BME280;7210;51.502;10.722;2023-03-03T04:41:01;100261.66;;;-0.57;100.00
14253;BME280;7210;51.502;10.722;2023-03-03T04:43:33;100259.31;;;-0.51;100.00
14253;BME280;7210;51.502;10.722;2023-03-03T04:46:01;100262.16;;;-0.44;100.00
14253;BME280;7210;51.502;10.722;2023-03-03T04:48:28;100268.31;;;-0.45;100.00
14253;BME280;7210;51.502;10.722;2023-03-03T04:50:55;100259.31;;;-0.51;100.00
14253;BME280;7210;51.502;10.722;2023-03-03T04:53:26;100242.53;;;-0.56;100.00
14253;BME280;7210;51.502;10.722;2023-03-03T04:55:55;100248.41;;;-0.54;100.00
14253;BME280;7210;51.502;10.722;2023-03-03T04:58:22;100241.56;;;-0.55;100.00
14253;BME280;7210;51.502;10.722;2023-03-03T05:00:54;100242.53;;;-0.56;100.00
14253;BME280;7210;51.502;10.722;2023-03-03T05:03:23;100247.72;;;-0.56;100.00
14253;BME280;7210;51.502;10.722;2023-03-03T05:05:56;100250.16;;;-0.55;100.00
14253;BME280;7210;51.502;10.722;2023-03-03T05:08:23;100245.25;;;-0.48;100.00
14253;BME280;7210;51.502;10.722;2023-03-03T05:10:52;100250.03;;;-0.44;100.00
14253;BME280;7210;51.502;10.722;2023-03-03T05:13:21;100253.72;;;-0.46;100.00
14253;BME280;7210;51.502;10.722;2023-03-03T05:15:49;100254.38;;;-0.44;100.00
14253;BME280;7210;51.502;10.722;2023-03-03T05:18:17;100254.81;;;-0.49;100.00
14253;BME280;7210;51.502;10.722;2023-03-03T05:20:45;100250.31;;;-0.56;100.00
14253;BME280;7210;51.502;10.722;2023-03-03T05:23:12;100247.19;;;-0.60;100.00
14253;BME280;7210;51.502;10.722;2023-03-03T05:25:40;100241.84;;;-0.58;100.00
14253;BME280;7210;51.502;10.722;2023-03-03T05:28:08;100243.75;;;-0.60;100.00
14253;BME280;7210;51.502;10.722;2023-03-03T05:30:37;100235.16;;;-0.61;100.00
14253;BME280;7210;51.502;10.722;2023-03-03T05:33:05;100240.75;;;-0.56;100.00
14253;BME280;7210;51.502;10.722;2023-03-03T05:35:33;100237.91;;;-0.62;100.00
14253;BME280;7210;51.502;10.722;2023-03-03T05:38:00;100232.16;;;-0.66;100.00
14253;BME280;7210;51.502;10.722;2023-03-03T05:40:27;100252.22;;;-0.58;100.00
14253;BME280;7210;51.502;10.722;2023-03-03T05:42:55;100248.28;;;-0.62;100.00
14253;BME280;7210;51.502;10.722;2023-03-03T05:45:23;100245.69;;;-0.62;100.00
14253;BME280;7210;51.502;10.722;2023-03-03T05:47:52;100246.66;;;-0.63;100.00
14253;BME280;7210;51.502;10.722;2023-03-03T05:50:23;100260.44;;;-0.63;100.00
14253;BME280;7210;51.502;10.722;2023-03-03T05:52:51;100264.81;;;-0.63;100.00
14253;BME280;7210;51.502;10.722;2023-03-03T05:55:19;100267.78;;;-0.58;100.00
14253;BME280;7210;51.502;10.722;2023-03-03T05:57:48;100271.91;;;-0.56;100.00
14253;BME280;7210;51.502;10.722;2023-03-03T06:00:17;100280.09;;;-0.60;100.00
14253;BME280;7210;51.502;10.722;2023-03-03T06:02:44;100283.25;;;-0.57;100.00
14253;BME280;7210;51.502;10.722;2023-03-03T06:05:13;100271.09;;;-0.56;100.00
14253;BME280;7210;51.502;10.722;2023-03-03T06:07:40;100274.66;;;-0.57;100.00
14253;BME280;7210;51.502;10.722;2023-03-03T06:10:09;100282.28;;;-0.56;100.00
14253;BME280;7210;51.502;10.722;2023-03-03T06:12:39;100281.19;;;-0.53;100.00
14253;BME280;7210;51.502;10.722;2023-03-03T06:15:08;100280.09;;;-0.51;100.00
14253;BME280;7210;51.502;10.722;2023-03-03T06:17:35;100291.03;;;-0.47;100.00
14253;BME280;7210;51.502;10.722;2023-03-03T06:20:04;100292.38;;;-0.43;100.00
14253;BME280;7210;51.502;10.722;2023-03-03T06:22:33;100286.91;;;-0.40;100.00
14253;BME280;7210;51.502;10.722;2023-03-03T06:25:00;100290.59;;;-0.33;100.00
14253;BME280;7210;51.502;10.722;2023-03-03T06:27:27;100290.00;;;-0.27;100.00
14253;BME280;7210;51.502;10.722;2023-03-03T06:29:55;100293.97;;;-0.23;100.00
14253;BME280;7210;51.502;10.722;2023-03-03T06:32:22;100288.22;;;-0.17;100.00
14253;BME280;7210;51.502;10.722;2023-03-03T06:34:49;100274.53;;;-0.19;100.00
14253;BME280;7210;51.502;10.722;2023-03-03T06:37:16;100277.53;;;-0.14;100.00
14253;BME280;7210;51.502;10.722;2023-03-03T06:39:45;100270.69;;;-0.15;100.00
14253;BME280;7210;51.502;10.722;2023-03-03T06:42:12;100271.66;;;-0.16;100.00
14253;BME280;7210;51.502;10.722;2023-03-03T06:44:39;100269.06;;;-0.16;100.00
14253;BME280;7210;51.502;10.722;2023-03-03T06:47:06;100253.91;;;-0.21;100.00
14253;BME280;7210;51.502;10.722;2023-03-03T06:49:34;100254.03;;;-0.22;100.00
14253;BME280;7210;51.502;10.722;2023-03-03T06:52:11;100253.06;;;-0.21;100.00
14253;BME280;7210;51.502;10.722;2023-03-03T06:54:40;100261.69;;;-0.11;100.00
14253;BME280;7210;51.502;10.722;2023-03-03T06:57:33;100242.97;;;-0.24;100.00
14253;BME280;7210;51.502;10.722;2023-03-03T07:00:17;100263.31;;;-0.10;100.00
14253;BME280;7210;51.502;10.722;2023-03-03T07:02:46;100253.44;;;-0.07;100.00
14253;BME280;7210;51.502;10.722;2023-03-03T07:05:16;100246.09;;;-0.11;100.00
14253;BME280;7210;51.502;10.722;2023-03-03T07:07:44;100247.72;;;-0.10;100.00
14253;BME280;7210;51.502;10.722;2023-03-03T07:10:22;100245.91;;;-0.01;100.00
14253;BME280;7210;51.502;10.722;2023-03-03T07:12:52;100268.97;;;0.02;100.00
14253;BME280;7210;51.502;10.722;2023-03-03T07:15:23;100268.72;;;0.05;100.00
14253;BME280;7210;51.502;10.722;2023-03-03T07:17:56;100261.28;;;0.10;100.00
14253;BME280;7210;51.502;10.722;2023-03-03T07:20:31;100215.47;;;-0.17;100.00
14253;BME280;7210;51.502;10.722;2023-03-03T07:23:04;100264.59;;;0.12;100.00
14253;BME280;7210;51.502;10.722;2023-03-03T07:25:38;100257.34;;;0.06;100.00
14253;BME280;7210;51.502;10.722;2023-03-03T07:28:20;100252.59;;;0.02;100.00
14253;BME280;7210;51.502;10.722;2023-03-03T07:30:48;100252.06;;;-0.02;100.00
14253;BME280;7210;51.502;10.722;2023-03-03T07:33:24;100256.69;;;0.04;100.00
14253;BME280;7210;51.502;10.722;2023-03-03T07:35:55;100256.38;;;0.07;100.00
14253;BME280;7210;51.502;10.722;2023-03-03T07:38:29;100273.91;;;0.32;100.00
14253;BME280;7210;51.502;10.722;2023-03-03T07:40:59;100258.78;;;0.18;100.00
14253;BME280;7210;51.502;10.722;2023-03-03T07:43:37;100257.16;;;0.17;100.00
14253;BME280;7210;51.502;10.722;2023-03-03T07:46:29;100244.06;;;0.09;100.00
14253;BME280;7210;51.502;10.722;2023-03-03T07:49:42;100246.00;;;0.07;100.00
14253;BME280;7210;51.502;10.722;2023-03-03T07:52:26;100248.03;;;0.13;100.00
14253;BME280;7210;51.502;10.722;2023-03-03T07:54:56;100256.88;;;0.20;100.00
14253;BME280;7210;51.502;10.722;2023-03-03T07:57:32;100254.66;;;0.25;100.00
14253;BME280;7210;51.502;10.722;2023-03-03T08:03:40;100258.41;;;0.40;100.00
14253;BME280;7210;51.502;10.722;2023-03-03T08:06:45;100248.28;;;0.37;100.00
14253;BME280;7210;51.502;10.722;2023-03-03T08:09:55;100261.34;;;0.55;100.00
14253;BME280;7210;51.502;10.722;2023-03-03T08:12:36;100256.88;;;0.65;100.00
14253;BME280;7210;51.502;10.722;2023-03-03T08:15:22;100258.34;;;0.85;100.00
14253;BME280;7210;51.502;10.722;2023-03-03T08:17:52;100245.78;;;0.80;100.00
14253;BME280;7210;51.502;10.722;2023-03-03T08:20:45;100265.75;;;0.89;100.00
14253;BME280;7210;51.502;10.722;2023-03-03T08:23:14;100240.59;;;0.80;100.00
14253;BME280;7210;51.502;10.722;2023-03-03T08:25:42;100237.25;;;0.88;100.00
14253;BME280;7210;51.502;10.722;2023-03-03T08:28:10;100227.00;;;0.86;100.00
14253;BME280;7210;51.502;10.722;2023-03-03T08:30:40;100223.13;;;0.90;100.00
14253;BME280;7210;51.502;10.722;2023-03-03T08:33:08;100218.59;;;0.92;100.00
14253;BME280;7210;51.502;10.722;2023-03-03T08:35:35;100220.75;;;0.97;100.00
14253;BME280;7210;51.502;10.722;2023-03-03T08:38:02;100207.53;;;0.90;100.00
14253;BME280;7210;51.502;10.722;2023-03-03T08:40:31;100211.75;;;0.91;100.00
14253;BME280;7210;51.502;10.722;2023-03-03T08:42:59;100214.44;;;0.99;100.00
14253;BME280;7210;51.502;10.722;2023-03-03T08:45:27;100217.38;;;1.04;100.00
14253;BME280;7210;51.502;10.722;2023-03-03T08:47:56;100232.47;;;1.18;100.00
14253;BME280;7210;51.502;10.722;2023-03-03T08:50:25;100216.50;;;1.13;100.00
14253;BME280;7210;51.502;10.722;2023-03-03T08:52:54;100233.34;;;1.27;100.00
14253;BME280;7210;51.502;10.722;2023-03-03T08:55:21;100222.47;;;1.31;100.00
14253;BME280;7210;51.502;10.722;2023-03-03T08:57:49;100207.50;;;1.33;100.00
14253;BME280;7210;51.502;10.722;2023-03-03T09:00:18;100218.81;;;1.42;100.00
14253;BME280;7210;51.502;10.722;2023-03-03T09:02:46;100208.84;;;1.37;100.00
14253;BME280;7210;51.502;10.722;2023-03-03T09:05:16;100210.16;;;1.41;100.00
14253;BME280;7210;51.502;10.722;2023-03-03T09:07:45;100212.47;;;1.44;100.00
14253;BME280;7210;51.502;10.722;2023-03-03T09:10:17;100198.91;;;1.33;100.00
14253;BME280;7210;51.502;10.722;2023-03-03T09:12:47;100202.00;;;1.36;100.00
14253;BME280;7210;51.502;10.722;2023-03-03T09:15:20;100222.31;;;1.58;100.00
14253;BME280;7210;51.502;10.722;2023-03-03T09:17:49;100239.56;;;1.85;100.00
14253;BME280;7210;51.502;10.722;2023-03-03T09:20:30;100240.59;;;2.00;100.00
14253;BME280;7210;51.502;10.722;2023-03-03T09:22:58;100217.59;;;1.87;100.00
14253;BME280;7210;51.502;10.722;2023-03-03T09:25:42;100188.47;;;1.66;100.00
14253;BME280;7210;51.502;10.722;2023-03-03T09:28:23;100181.34;;;1.68;99.77
14253;BME280;7210;51.502;10.722;2023-03-03T09:30:53;100177.66;;;1.79;99.09
14253;BME280;7210;51.502;10.722;2023-03-03T09:33:40;100179.09;;;1.81;98.93
14253;BME280;7210;51.502;10.722;2023-03-03T09:36:22;100159.63;;;1.60;97.96
14253;BME280;7210;51.502;10.722;2023-03-03T09:38:51;100166.69;;;1.67;98.09
14253;BME280;7210;51.502;10.722;2023-03-03T09:41:56;100167.03;;;1.72;97.50
14253;BME280;7210;51.502;10.722;2023-03-03T09:45:05;100172.59;;;1.77;96.91
14253;BME280;7210;51.502;10.722;2023-03-03T09:47:48;100167.09;;;1.88;96.83
14253;BME280;7210;51.502;10.722;2023-03-03T09:50:33;100167.09;;;1.88;96.52
14253;BME280;7210;51.502;10.722;2023-03-03T09:53:26;100148.16;;;1.78;96.61
14253;BME280;7210;51.502;10.722;2023-03-03T09:56:08;100164.16;;;1.83;96.58
14253;BME280;7210;51.502;10.722;2023-03-03T09:59:02;100197.50;;;2.13;96.67
14253;BME280;7210;51.502;10.722;2023-03-03T10:01:54;100219.88;;;2.40;96.35
14253;BME280;7210;51.502;10.722;2023-03-03T10:04:53;100209.03;;;2.52;95.69
14253;BME280;7210;51.502;10.722;2023-03-03T10:07:44;100191.72;;;2.51;95.07
14253;BME280;7210;51.502;10.722;2023-03-03T10:10:43;100273.22;;;3.11;96.11
14253;BME280;7210;51.502;10.722;2023-03-03T10:13:29;100247.09;;;3.27;95.34
14253;BME280;7210;51.502;10.722;2023-03-03T10:16:20;100181.94;;;3.17;93.66
14253;BME280;7210;51.502;10.722;2023-03-03T10:19:00;100144.91;;;3.06;92.68
14253;BME280;7210;51.502;10.722;2023-03-03T10:21:50;100146.03;;;3.11;91.91
14253;BME280;7210;51.502;10.722;2023-03-03T10:24:28;100234.56;;;3.84;93.52
14253;BME280;7210;51.502;10.722;2023-03-03T10:27:27;100161.94;;;3.56;91.51
14253;BME280;7210;51.502;10.722;2023-03-03T10:30:10;100142.81;;;3.55;90.91
14253;BME280;7210;51.502;10.722;2023-03-03T10:32:48;100109.38;;;3.43;90.09
14253;BME280;7210;51.502;10.722;2023-03-03T10:35:40;100066.22;;;3.09;89.70
14253;BME280;7210;51.502;10.722;2023-03-03T10:38:44;100133.25;;;3.40;89.66
14253;BME280;7210;51.502;10.722;2023-03-03T10:41:42;100099.31;;;3.32;89.07
14253;BME280;7210;51.502;10.722;2023-03-03T10:44:39;100112.19;;;3.42;88.85
14253;BME280;7210;51.502;10.722;2023-03-03T10:47:57;100104.59;;;3.54;88.51
14253;BME280;7210;51.502;10.722;2023-03-03T10:50:49;100087.00;;;3.41;87.91
14253;BME280;7210;51.502;10.722;2023-03-03T10:53:26;100111.28;;;3.57;88.35
14253;BME280;7210;51.502;10.722;2023-03-03T10:56:14;100141.13;;;3.70;88.33
14253;BME280;7210;51.502;10.722;2023-03-03T10:59:06;100116.16;;;3.68;87.85
14253;BME280;7210;51.502;10.722;2023-03-03T11:01:51;100116.16;;;3.68;87.63
14253;BME280;7210;51.502;10.722;2023-03-03T11:05:07;100124.94;;;3.75;87.19
14253;BME280;7210;51.502;10.722;2023-03-03T11:07:48;100062.66;;;3.48;86.52
14253;BME280;7210;51.502;10.722;2023-03-03T11:10:32;100025.38;;;3.16;86.54
14253;BME280;7210;51.502;10.722;2023-03-03T11:13:13;100034.25;;;2.99;86.79
14253;BME280;7210;51.502;10.722;2023-03-03T11:19:05;100124.13;;;3.28;87.52
14253;BME280;7210;51.502;10.722;2023-03-03T11:21:46;100160.63;;;3.52;87.36
14253;BME280;7210;51.502;10.722;2023-03-03T11:24:45;100124.06;;;3.44;87.37
14253;BME280;7210;51.502;10.722;2023-03-03T11:28:04;100128.69;;;3.34;87.47
14253;BME280;7210;51.502;10.722;2023-03-03T11:30:57;100152.69;;;3.38;88.02
14253;BME280;7210;51.502;10.722;2023-03-03T11:33:34;100206.81;;;3.75;87.74
14253;BME280;7210;51.502;10.722;2023-03-03T11:36:15;100151.47;;;3.64;87.43
14253;BME280;7210;51.502;10.722;2023-03-03T11:38:53;100196.09;;;4.01;86.85
14253;BME280;7210;51.502;10.722;2023-03-03T11:41:31;100130.44;;;3.88;86.10
14253;BME280;7210;51.502;10.722;2023-03-03T11:44:16;100118.25;;;3.80;86.22
14253;BME280;7210;51.502;10.722;2023-03-03T11:46:49;100149.09;;;3.85;86.45
14253;BME280;7210;51.502;10.722;2023-03-03T11:49:24;100173.88;;;3.97;86.80
14253;BME280;7210;51.502;10.722;2023-03-03T11:52:10;100172.75;;;4.22;86.13
14253;BME280;7210;51.502;10.722;2023-03-03T11:54:48;100145.34;;;4.18;85.80
14253;BME280;7210;51.502;10.722;2023-03-03T11:57:23;100119.25;;;4.02;85.91
14253;BME280;7210;51.502;10.722;2023-03-03T12:00:15;100196.53;;;4.43;86.11
14253;BME280;7210;51.502;10.722;2023-03-03T12:03:13;100171.72;;;4.61;85.10
14253;BME280;7210;51.502;10.722;2023-03-03T12:05:52;100125.94;;;4.57;84.66
14253;BME280;7210;51.502;10.722;2023-03-03T12:08:40;100089.53;;;4.48;83.69
14253;BME280;7210;51.502;10.722;2023-03-03T12:11:18;100056.50;;;4.47;83.47
14253;BME280;7210;51.502;10.722;2023-03-03T12:14:00;100083.66;;;4.46;83.83
14253;BME280;7210;51.502;10.722;2023-03-03T12:16:50;100061.84;;;4.31;83.89
14253;BME280;7210;51.502;10.722;2023-03-03T12:19:39;100066.47;;;4.21;83.88
14253;BME280;7210;51.502;10.722;2023-03-03T12:22:27;100086.84;;;4.11;84.12
14253;BME280;7210;51.502;10.722;2023-03-03T12:25:21;100068.00;;;3.93;84.21
14253;BME280;7210;51.502;10.722;2023-03-03T12:27:57;100087.03;;;3.79;84.46
14253;BME280;7210;51.502;10.722;2023-03-03T12:30:43;100091.31;;;3.72;84.92
14253;BME280;7210;51.502;10.722;2023-03-03T12:33:27;100132.78;;;3.75;85.40
14253;BME280;7210;51.502;10.722;2023-03-03T12:36:12;100154.34;;;3.85;85.39
14253;BME280;7210;51.502;10.722;2023-03-03T12:38:51;100151.41;;;3.80;85.69
14253;BME280;7210;51.502;10.722;2023-03-03T12:41:32;100156.00;;;3.78;85.58
14253;BME280;7210;51.502;10.722;2023-03-03T12:44:14;100203.31;;;3.91;86.55
14253;BME280;7210;51.502;10.722;2023-03-03T12:46:52;100244.66;;;4.03;86.86
14253;BME280;7210;51.502;10.722;2023-03-03T12:49:34;100219.91;;;4.14;85.73
14253;BME280;7210;51.502;10.722;2023-03-03T12:52:20;100162.38;;;4.06;85.09
14253;BME280;7210;51.502;10.722;2023-03-03T12:55:04;100185.56;;;4.17;85.16
14253;BME280;7210;51.502;10.722;2023-03-03T12:57:48;100127.63;;;3.97;84.63
14253;BME280;7210;51.502;10.722;2023-03-03T13:00:40;100130.06;;;3.99;84.78
14253;BME280;7210;51.502;10.722;2023-03-03T13:03:25;100155.53;;;4.05;84.88
14253;BME280;7210;51.502;10.722;2023-03-03T13:06:10;100170.59;;;4.03;85.31
14253;BME280;7210;51.502;10.722;2023-03-03T13:09:11;100217.22;;;4.30;85.17
14253;BME280;7210;51.502;10.722;2023-03-03T13:12:02;100188.63;;;4.28;85.14
14253;BME280;7210;51.502;10.722;2023-03-03T13:14:44;100174.75;;;4.20;85.12
14253;BME280;7210;51.502;10.722;2023-03-03T13:17:21;100205.91;;;4.37;85.36
14253;BME280;7210;51.502;10.722;2023-03-03T13:19:55;100224.59;;;4.57;85.03
14253;BME280;7210;51.502;10.722;2023-03-03T13:22:37;100163.09;;;4.30;84.72
14253;BME280;7210;51.502;10.722;2023-03-03T13:25:26;100160.75;;;4.05;85.26
14253;BME280;7210;51.502;10.722;2023-03-03T13:28:03;100203.72;;;4.18;85.64
14253;BME280;7210;51.502;10.722;2023-03-03T13:30:39;100223.16;;;4.24;85.40
14253;BME280;7210;51.502;10.722;2023-03-03T13:33:19;100232.59;;;4.33;85.25
14253;BME280;7210;51.502;10.722;2023-03-03T13:35:55;100225.72;;;4.32;85.36
14253;BME280;7210;51.502;10.722;2023-03-03T13:38:27;100217.03;;;4.31;85.45
14253;BME280;7210;51.502;10.722;2023-03-03T13:41:04;100243.66;;;4.43;85.60
14253;BME280;7210;51.502;10.722;2023-03-03T13:43:42;100187.47;;;4.31;85.00